GLD1121 EGYP-SCGZ
Flight info
| Callsign | GLD1121 |
|---|---|
| Flight time | 1h 45m |
| Altitude | 10000 |
| Route | ATOKI SCGZ/ |
| Aircraft | TBM9/M-SDFGIRY/S |
Departure
| Time | 2026-04-11 20:09 |
|---|---|
| Airport | Mount Pleasant Airport / RAF Mount Pleasant (EGYP) |
Arrival
| Time | 2026-04-11 21:55 |
|---|---|
| Airport | Guardia Marina Zañartu Airport (SCGZ) |
| Time | Latitude | Longitude | Altitude | Speed | Heading |
|---|---|---|---|---|---|
| 2026-04-11 20:09 | -51.85406 | -58.67871 | 9903 ft | 127 kts | 260° |
| 2026-04-11 20:09 | -51.85782 | -58.69364 | 9926 ft | 158 kts | 258° |
| 2026-04-11 20:10 | -51.86245 | -58.71140 | 9931 ft | 183 kts | 256° |
| 2026-04-11 20:10 | -51.86418 | -58.71789 | 9930 ft | 189 kts | 256° |
| 2026-04-11 20:11 | -51.88529 | -58.79694 | 9933 ft | 220 kts | 255° |
| 2026-04-11 20:11 | -51.89137 | -58.81980 | 9935 ft | 222 kts | 255° |
| 2026-04-11 20:11 | -51.89750 | -58.84292 | 9939 ft | 224 kts | 255° |
| 2026-04-11 20:11 | -51.90364 | -58.86612 | 9941 ft | 225 kts | 255° |
| 2026-04-11 20:12 | -51.90982 | -58.88944 | 9948 ft | 226 kts | 255° |
| 2026-04-11 20:12 | -51.91599 | -58.91280 | 9946 ft | 226 kts | 255° |
| 2026-04-11 20:12 | -51.92217 | -58.93622 | 9949 ft | 226 kts | 255° |
| 2026-04-11 20:12 | -51.92834 | -58.95962 | 9946 ft | 226 kts | 255° |
| 2026-04-11 20:13 | -51.93450 | -58.98300 | 9949 ft | 226 kts | 255° |
| 2026-04-11 20:13 | -51.94065 | -59.00640 | 9949 ft | 226 kts | 255° |
| 2026-04-11 20:13 | -51.94681 | -59.02983 | 9949 ft | 226 kts | 255° |
| 2026-04-11 20:13 | -51.95295 | -59.05321 | 9950 ft | 226 kts | 255° |
| 2026-04-11 20:14 | -51.95909 | -59.07663 | 9947 ft | 226 kts | 255° |
| 2026-04-11 20:14 | -51.96523 | -59.10004 | 9946 ft | 226 kts | 255° |
| 2026-04-11 20:14 | -51.97128 | -59.12317 | 9946 ft | 226 kts | 255° |
| 2026-04-11 20:14 | -51.97746 | -59.14680 | 9946 ft | 226 kts | 255° |
| 2026-04-11 20:15 | -51.98360 | -59.17029 | 9950 ft | 226 kts | 255° |
| 2026-04-11 20:15 | -51.98964 | -59.19348 | 9945 ft | 226 kts | 255° |
| 2026-04-11 20:15 | -51.99576 | -59.21697 | 9946 ft | 226 kts | 255° |
| 2026-04-11 20:15 | -52.00188 | -59.24046 | 9945 ft | 226 kts | 255° |
| 2026-04-11 20:16 | -52.00800 | -59.26399 | 9945 ft | 226 kts | 255° |
| 2026-04-11 20:16 | -52.01413 | -59.28756 | 9943 ft | 226 kts | 255° |
| 2026-04-11 20:16 | -52.02022 | -59.31104 | 9942 ft | 226 kts | 255° |
| 2026-04-11 20:16 | -52.02633 | -59.33462 | 9942 ft | 226 kts | 255° |
| 2026-04-11 20:17 | -52.03243 | -59.35816 | 9941 ft | 226 kts | 255° |
| 2026-04-11 20:17 | -52.03853 | -59.38172 | 9940 ft | 226 kts | 255° |
| 2026-04-11 20:17 | -52.04462 | -59.40526 | 9938 ft | 226 kts | 255° |
| 2026-04-11 20:17 | -52.05071 | -59.42887 | 9939 ft | 226 kts | 255° |
| 2026-04-11 20:18 | -52.05679 | -59.45241 | 9937 ft | 226 kts | 255° |
| 2026-04-11 20:18 | -52.06285 | -59.47597 | 9942 ft | 226 kts | 256° |
| 2026-04-11 20:18 | -52.06893 | -59.49957 | 9944 ft | 226 kts | 255° |
| 2026-04-11 20:18 | -52.07499 | -59.52315 | 9940 ft | 227 kts | 255° |
| 2026-04-11 20:19 | -52.08106 | -59.54680 | 9939 ft | 227 kts | 255° |
| 2026-04-11 20:19 | -52.08712 | -59.57040 | 9940 ft | 227 kts | 255° |
| 2026-04-11 20:19 | -52.09321 | -59.59417 | 9939 ft | 227 kts | 255° |
| 2026-04-11 20:19 | -52.09928 | -59.61786 | 9940 ft | 227 kts | 256° |
| 2026-04-11 20:20 | -52.10533 | -59.64152 | 9932 ft | 227 kts | 256° |
| 2026-04-11 20:20 | -52.11140 | -59.66523 | 9938 ft | 227 kts | 255° |
| 2026-04-11 20:20 | -52.11744 | -59.68890 | 9933 ft | 227 kts | 256° |
| 2026-04-11 20:20 | -52.12347 | -59.71259 | 9939 ft | 227 kts | 256° |
| 2026-04-11 20:21 | -52.12952 | -59.73638 | 9939 ft | 227 kts | 256° |
| 2026-04-11 20:21 | -52.13556 | -59.76009 | 9933 ft | 227 kts | 256° |
| 2026-04-11 20:21 | -52.14160 | -59.78380 | 9938 ft | 227 kts | 256° |
| 2026-04-11 20:21 | -52.14762 | -59.80755 | 9935 ft | 227 kts | 256° |
| 2026-04-11 20:22 | -52.15365 | -59.83128 | 9930 ft | 227 kts | 256° |
| 2026-04-11 20:22 | -52.15966 | -59.85504 | 9932 ft | 227 kts | 256° |
| 2026-04-11 20:22 | -52.16566 | -59.87876 | 9939 ft | 227 kts | 256° |
| 2026-04-11 20:22 | -52.17168 | -59.90255 | 9939 ft | 227 kts | 255° |
| 2026-04-11 20:23 | -52.17768 | -59.92628 | 9932 ft | 227 kts | 255° |
| 2026-04-11 20:23 | -52.18367 | -59.95007 | 9929 ft | 227 kts | 255° |
| 2026-04-11 20:23 | -52.18968 | -59.97389 | 9932 ft | 227 kts | 255° |
| 2026-04-11 20:23 | -52.19567 | -59.99770 | 9928 ft | 227 kts | 255° |
| 2026-04-11 20:24 | -52.20167 | -60.02158 | 9932 ft | 227 kts | 256° |
| 2026-04-11 20:24 | -52.20767 | -60.04543 | 9931 ft | 228 kts | 255° |
| 2026-04-11 20:24 | -52.21365 | -60.06928 | 9936 ft | 228 kts | 256° |
| 2026-04-11 20:24 | -52.21964 | -60.09317 | 9935 ft | 227 kts | 255° |
| 2026-04-11 20:25 | -52.22562 | -60.11706 | 9929 ft | 227 kts | 255° |
| 2026-04-11 20:25 | -52.23160 | -60.14095 | 9932 ft | 228 kts | 256° |
| 2026-04-11 20:25 | -52.23757 | -60.16485 | 9929 ft | 228 kts | 256° |
| 2026-04-11 20:25 | -52.24354 | -60.18880 | 9931 ft | 228 kts | 256° |
| 2026-04-11 20:26 | -52.24952 | -60.21275 | 9928 ft | 228 kts | 255° |
| 2026-04-11 20:26 | -52.25547 | -60.23667 | 9933 ft | 228 kts | 255° |
| 2026-04-11 20:26 | -52.26143 | -60.26059 | 9928 ft | 228 kts | 256° |
| 2026-04-11 20:26 | -52.26576 | -60.27805 | 9933 ft | 228 kts | 255° |
| 2026-04-11 20:27 | -52.27173 | -60.30205 | 9932 ft | 228 kts | 256° |
| 2026-04-11 20:27 | -52.27767 | -60.32604 | 9931 ft | 228 kts | 256° |
| 2026-04-11 20:27 | -52.28362 | -60.35006 | 9931 ft | 228 kts | 256° |
| 2026-04-11 20:27 | -52.28957 | -60.37411 | 9934 ft | 228 kts | 255° |
| 2026-04-11 20:28 | -52.29544 | -60.39784 | 9931 ft | 228 kts | 255° |
| 2026-04-11 20:28 | -52.30139 | -60.42189 | 9932 ft | 228 kts | 255° |
| 2026-04-11 20:28 | -52.30733 | -60.44597 | 9928 ft | 229 kts | 255° |
| 2026-04-11 20:28 | -52.31326 | -60.47007 | 9931 ft | 229 kts | 255° |
| 2026-04-11 20:29 | -52.31919 | -60.49415 | 9928 ft | 229 kts | 255° |
| 2026-04-11 20:29 | -52.32513 | -60.51831 | 9929 ft | 229 kts | 255° |
| 2026-04-11 20:29 | -52.33105 | -60.54239 | 9930 ft | 229 kts | 255° |
| 2026-04-11 20:29 | -52.33697 | -60.56652 | 9929 ft | 229 kts | 255° |
| 2026-04-11 20:30 | -52.34289 | -60.59066 | 9930 ft | 229 kts | 255° |
| 2026-04-11 20:30 | -52.34880 | -60.61482 | 9931 ft | 229 kts | 255° |
| 2026-04-11 20:30 | -52.35472 | -60.63900 | 9930 ft | 229 kts | 255° |
| 2026-04-11 20:30 | -52.36063 | -60.66324 | 9929 ft | 229 kts | 255° |
| 2026-04-11 20:31 | -52.36655 | -60.68748 | 9929 ft | 229 kts | 255° |
| 2026-04-11 20:31 | -52.37243 | -60.71160 | 9930 ft | 229 kts | 255° |
| 2026-04-11 20:31 | -52.37835 | -60.73595 | 9929 ft | 229 kts | 255° |
| 2026-04-11 20:31 | -52.38426 | -60.76022 | 9930 ft | 229 kts | 255° |
| 2026-04-11 20:32 | -52.39016 | -60.78449 | 9932 ft | 230 kts | 255° |
| 2026-04-11 20:32 | -52.39605 | -60.80878 | 9934 ft | 230 kts | 256° |
| 2026-04-11 20:32 | -52.40194 | -60.83309 | 9931 ft | 230 kts | 256° |
| 2026-04-11 20:32 | -52.40783 | -60.85742 | 9931 ft | 230 kts | 256° |
| 2026-04-11 20:33 | -52.41373 | -60.88178 | 9932 ft | 230 kts | 256° |
| 2026-04-11 20:33 | -52.41961 | -60.90614 | 9938 ft | 230 kts | 256° |
| 2026-04-11 20:33 | -52.42548 | -60.93046 | 9933 ft | 230 kts | 256° |
| 2026-04-11 20:33 | -52.43135 | -60.95481 | 9936 ft | 230 kts | 256° |
| 2026-04-11 20:34 | -52.43722 | -60.97919 | 9934 ft | 230 kts | 256° |
| 2026-04-11 20:34 | -52.44308 | -61.00358 | 9938 ft | 230 kts | 256° |
| 2026-04-11 20:34 | -52.44894 | -61.02796 | 9938 ft | 230 kts | 256° |
| 2026-04-11 20:34 | -52.45473 | -61.05208 | 9937 ft | 230 kts | 256° |
| 2026-04-11 20:35 | -52.46065 | -61.07682 | 9938 ft | 230 kts | 256° |
| 2026-04-11 20:35 | -52.46643 | -61.10093 | 9939 ft | 230 kts | 256° |
| 2026-04-11 20:35 | -52.47228 | -61.12539 | 9937 ft | 230 kts | 256° |
| 2026-04-11 20:35 | -52.47812 | -61.14985 | 9938 ft | 230 kts | 256° |
| 2026-04-11 20:36 | -52.48395 | -61.17428 | 9941 ft | 230 kts | 256° |
| 2026-04-11 20:36 | -52.48978 | -61.19871 | 9940 ft | 230 kts | 256° |
| 2026-04-11 20:36 | -52.49560 | -61.22319 | 9941 ft | 230 kts | 256° |
| 2026-04-11 20:36 | -52.50142 | -61.24766 | 9939 ft | 230 kts | 256° |
| 2026-04-11 20:37 | -52.50724 | -61.27214 | 9940 ft | 230 kts | 256° |
| 2026-04-11 20:37 | -52.51305 | -61.29664 | 9943 ft | 230 kts | 256° |
| 2026-04-11 20:37 | -52.51885 | -61.32113 | 9939 ft | 231 kts | 256° |
| 2026-04-11 20:37 | -52.52467 | -61.34569 | 9937 ft | 231 kts | 256° |
| 2026-04-11 20:38 | -52.53048 | -61.37027 | 9940 ft | 231 kts | 256° |
| 2026-04-11 20:38 | -52.53627 | -61.39479 | 9938 ft | 230 kts | 256° |
| 2026-04-11 20:38 | -52.54207 | -61.41935 | 9940 ft | 230 kts | 256° |
| 2026-04-11 20:38 | -52.54785 | -61.44388 | 9938 ft | 230 kts | 256° |
| 2026-04-11 20:39 | -52.55363 | -61.46845 | 9935 ft | 230 kts | 256° |
| 2026-04-11 20:39 | -52.55939 | -61.49296 | 9936 ft | 230 kts | 256° |
| 2026-04-11 20:39 | -52.56517 | -61.51757 | 9938 ft | 231 kts | 256° |
| 2026-04-11 20:39 | -52.57094 | -61.54216 | 9937 ft | 231 kts | 256° |
| 2026-04-11 20:40 | -52.57671 | -61.56675 | 9940 ft | 231 kts | 256° |
| 2026-04-11 20:40 | -52.58246 | -61.59133 | 9940 ft | 230 kts | 256° |
| 2026-04-11 20:40 | -52.58820 | -61.61590 | 9938 ft | 230 kts | 256° |
| 2026-04-11 20:40 | -52.59395 | -61.64050 | 9937 ft | 230 kts | 257° |
| 2026-04-11 20:41 | -52.59967 | -61.66504 | 9938 ft | 230 kts | 257° |
| 2026-04-11 20:41 | -52.60540 | -61.68962 | 9942 ft | 230 kts | 257° |
| 2026-04-11 20:41 | -52.61110 | -61.71415 | 9939 ft | 230 kts | 257° |
| 2026-04-11 20:41 | -52.61682 | -61.73873 | 9939 ft | 230 kts | 257° |
| 2026-04-11 20:42 | -52.62252 | -61.76329 | 9939 ft | 230 kts | 257° |
| 2026-04-11 20:42 | -52.62822 | -61.78784 | 9939 ft | 230 kts | 257° |
| 2026-04-11 20:42 | -52.63391 | -61.81243 | 9943 ft | 230 kts | 257° |
| 2026-04-11 20:42 | -52.63959 | -61.83700 | 9941 ft | 230 kts | 257° |
| 2026-04-11 20:43 | -52.64520 | -61.86125 | 9942 ft | 230 kts | 257° |
| 2026-04-11 20:43 | -52.65089 | -61.88588 | 9937 ft | 230 kts | 257° |
| 2026-04-11 20:43 | -52.65655 | -61.91048 | 9938 ft | 230 kts | 257° |
| 2026-04-11 20:43 | -52.66222 | -61.93508 | 9938 ft | 230 kts | 257° |
| 2026-04-11 20:44 | -52.66788 | -61.95969 | 9940 ft | 230 kts | 257° |
| 2026-04-11 20:44 | -52.67353 | -61.98427 | 9943 ft | 230 kts | 257° |
| 2026-04-11 20:44 | -52.67917 | -62.00886 | 9941 ft | 230 kts | 257° |
| 2026-04-11 20:44 | -52.68481 | -62.03346 | 9942 ft | 230 kts | 257° |
| 2026-04-11 20:45 | -52.69045 | -62.05808 | 9943 ft | 230 kts | 257° |
| 2026-04-11 20:45 | -52.69609 | -62.08277 | 9939 ft | 230 kts | 257° |
| 2026-04-11 20:45 | -52.70171 | -62.10736 | 9944 ft | 229 kts | 257° |
| 2026-04-11 20:45 | -52.70732 | -62.13196 | 9941 ft | 229 kts | 257° |
| 2026-04-11 20:46 | -52.71293 | -62.15659 | 9944 ft | 229 kts | 257° |
| 2026-04-11 20:46 | -52.71854 | -62.18119 | 9945 ft | 229 kts | 257° |
| 2026-04-11 20:46 | -52.72414 | -62.20583 | 9944 ft | 229 kts | 257° |
| 2026-04-11 20:47 | -52.73970 | -62.25251 | 9929 ft | 239 kts | 240° |
| 2026-04-11 20:47 | -52.74984 | -62.27421 | 9931 ft | 238 kts | 242° |
| 2026-04-11 20:47 | -52.75982 | -62.29604 | 9929 ft | 238 kts | 242° |
| 2026-04-11 20:47 | -52.76980 | -62.31782 | 9926 ft | 238 kts | 241° |
| 2026-04-11 20:48 | -52.77978 | -62.33954 | 9927 ft | 237 kts | 241° |
| 2026-04-11 20:48 | -52.78977 | -62.36129 | 9933 ft | 237 kts | 242° |
| 2026-04-11 20:48 | -52.79971 | -62.38298 | 9928 ft | 237 kts | 242° |
| 2026-04-11 20:48 | -52.80967 | -62.40474 | 9933 ft | 237 kts | 242° |
| 2026-04-11 20:49 | -52.81963 | -62.42651 | 9933 ft | 237 kts | 242° |
| 2026-04-11 20:49 | -52.82957 | -62.44823 | 9930 ft | 237 kts | 242° |
| 2026-04-11 20:49 | -52.83950 | -62.46997 | 9932 ft | 237 kts | 242° |
| 2026-04-11 20:49 | -52.84941 | -62.49170 | 9931 ft | 236 kts | 242° |
| 2026-04-11 20:50 | -52.85933 | -62.51343 | 9933 ft | 236 kts | 242° |
| 2026-04-11 20:50 | -52.86922 | -62.53514 | 9931 ft | 236 kts | 242° |
| 2026-04-11 20:50 | -52.87911 | -62.55685 | 9931 ft | 236 kts | 242° |
| 2026-04-11 20:50 | -52.88899 | -62.57857 | 9929 ft | 236 kts | 242° |
| 2026-04-11 20:51 | -52.89871 | -62.59998 | 9931 ft | 236 kts | 242° |
| 2026-04-11 20:51 | -52.90859 | -62.62173 | 9933 ft | 236 kts | 242° |
| 2026-04-11 20:51 | -52.91846 | -62.64348 | 9930 ft | 236 kts | 242° |
| 2026-04-11 20:51 | -52.92832 | -62.66523 | 9931 ft | 236 kts | 242° |
| 2026-04-11 20:52 | -52.93817 | -62.68698 | 9931 ft | 236 kts | 242° |
| 2026-04-11 20:52 | -52.94801 | -62.70874 | 9930 ft | 236 kts | 242° |
| 2026-04-11 20:52 | -52.95786 | -62.73052 | 9932 ft | 236 kts | 242° |
| 2026-04-11 20:52 | -52.96769 | -62.75227 | 9931 ft | 236 kts | 242° |
| 2026-04-11 20:53 | -52.97754 | -62.77409 | 9931 ft | 236 kts | 242° |
| 2026-04-11 20:53 | -52.98738 | -62.79592 | 9934 ft | 236 kts | 242° |
| 2026-04-11 20:53 | -52.99721 | -62.81775 | 9936 ft | 236 kts | 242° |
| 2026-04-11 20:53 | -53.00706 | -62.83961 | 9934 ft | 236 kts | 242° |
| 2026-04-11 20:54 | -53.01691 | -62.86150 | 9934 ft | 236 kts | 242° |
| 2026-04-11 20:54 | -53.02342 | -62.87599 | 9934 ft | 236 kts | 242° |
| 2026-04-11 20:54 | -53.03323 | -62.89783 | 9933 ft | 236 kts | 242° |
| 2026-04-11 20:54 | -53.04306 | -62.91975 | 9936 ft | 236 kts | 242° |
| 2026-04-11 20:55 | -53.05288 | -62.94163 | 9933 ft | 236 kts | 242° |
| 2026-04-11 20:55 | -53.06268 | -62.96353 | 9934 ft | 236 kts | 242° |
| 2026-04-11 20:55 | -53.07249 | -62.98545 | 9939 ft | 236 kts | 242° |
| 2026-04-11 20:55 | -53.08230 | -63.00738 | 9931 ft | 236 kts | 242° |
| 2026-04-11 20:56 | -53.09212 | -63.02936 | 9933 ft | 236 kts | 242° |
| 2026-04-11 20:56 | -53.10192 | -63.05130 | 9935 ft | 236 kts | 243° |
| 2026-04-11 20:56 | -53.11172 | -63.07328 | 9939 ft | 236 kts | 243° |
| 2026-04-11 20:56 | -53.12150 | -63.09522 | 9937 ft | 236 kts | 243° |
| 2026-04-11 20:57 | -53.13127 | -63.11715 | 9934 ft | 236 kts | 243° |
| 2026-04-11 20:57 | -53.14100 | -63.13903 | 9936 ft | 236 kts | 243° |
| 2026-04-11 20:57 | -53.15076 | -63.16098 | 9933 ft | 235 kts | 243° |
| 2026-04-11 20:57 | -53.16038 | -63.18264 | 9934 ft | 235 kts | 243° |
| 2026-04-11 20:58 | -53.17008 | -63.20451 | 9935 ft | 235 kts | 243° |
| 2026-04-11 20:58 | -53.17980 | -63.22643 | 9938 ft | 235 kts | 243° |
| 2026-04-11 20:58 | -53.18948 | -63.24829 | 9936 ft | 234 kts | 243° |
| 2026-04-11 20:58 | -53.19918 | -63.27019 | 9938 ft | 234 kts | 243° |
| 2026-04-11 20:59 | -53.20885 | -63.29205 | 9933 ft | 234 kts | 243° |
| 2026-04-11 20:59 | -53.21851 | -63.31393 | 9935 ft | 234 kts | 243° |
| 2026-04-11 20:59 | -53.22819 | -63.33585 | 9935 ft | 234 kts | 244° |
| 2026-04-11 20:59 | -53.23782 | -63.35771 | 9936 ft | 234 kts | 244° |
| 2026-04-11 21:00 | -53.24747 | -63.37959 | 9936 ft | 234 kts | 244° |
| 2026-04-11 21:00 | -53.25710 | -63.40145 | 9932 ft | 234 kts | 244° |
| 2026-04-11 21:00 | -53.26672 | -63.42332 | 9937 ft | 234 kts | 244° |
| 2026-04-11 21:00 | -53.27632 | -63.44516 | 9935 ft | 233 kts | 244° |
| 2026-04-11 21:01 | -53.28591 | -63.46700 | 9930 ft | 233 kts | 244° |
| 2026-04-11 21:01 | -53.29549 | -63.48883 | 9930 ft | 233 kts | 244° |
| 2026-04-11 21:01 | -53.30505 | -63.51063 | 9931 ft | 232 kts | 244° |
| 2026-04-11 21:01 | -53.31460 | -63.53243 | 9932 ft | 232 kts | 244° |
| 2026-04-11 21:02 | -53.32414 | -63.55424 | 9926 ft | 232 kts | 244° |
| 2026-04-11 21:02 | -53.33367 | -63.57604 | 9927 ft | 232 kts | 244° |
| 2026-04-11 21:02 | -53.34320 | -63.59785 | 9927 ft | 232 kts | 244° |
| 2026-04-11 21:02 | -53.35270 | -63.61960 | 9928 ft | 232 kts | 244° |
| 2026-04-11 21:03 | -53.36219 | -63.64137 | 9924 ft | 231 kts | 244° |
| 2026-04-11 21:03 | -53.37169 | -63.66316 | 9931 ft | 231 kts | 245° |
| 2026-04-11 21:03 | -53.38117 | -63.68494 | 9928 ft | 231 kts | 244° |
| 2026-04-11 21:03 | -53.39065 | -63.70673 | 9922 ft | 231 kts | 245° |
| 2026-04-11 21:04 | -53.40011 | -63.72850 | 9929 ft | 231 kts | 244° |
| 2026-04-11 21:04 | -53.40959 | -63.75033 | 9927 ft | 232 kts | 244° |
| 2026-04-11 21:04 | -53.41890 | -63.77180 | 9922 ft | 231 kts | 245° |
| 2026-04-11 21:04 | -53.42849 | -63.79393 | 9926 ft | 231 kts | 245° |
| 2026-04-11 21:05 | -53.43795 | -63.81576 | 9923 ft | 231 kts | 245° |
| 2026-04-11 21:05 | -53.44740 | -63.83760 | 9925 ft | 231 kts | 245° |
| 2026-04-11 21:05 | -53.45673 | -63.85915 | 9923 ft | 231 kts | 245° |
| 2026-04-11 21:05 | -53.46616 | -63.88099 | 9922 ft | 231 kts | 245° |
| 2026-04-11 21:06 | -53.47558 | -63.90282 | 9924 ft | 231 kts | 245° |
| 2026-04-11 21:06 | -53.48503 | -63.92472 | 9921 ft | 231 kts | 245° |
| 2026-04-11 21:06 | -53.49445 | -63.94660 | 9919 ft | 231 kts | 245° |
| 2026-04-11 21:06 | -53.50389 | -63.96853 | 9920 ft | 232 kts | 245° |
| 2026-04-11 21:07 | -53.51334 | -63.99049 | 9921 ft | 232 kts | 245° |
| 2026-04-11 21:07 | -53.52278 | -64.01245 | 9919 ft | 232 kts | 245° |
| 2026-04-11 21:07 | -53.53223 | -64.03446 | 9917 ft | 232 kts | 245° |
| 2026-04-11 21:07 | -53.54168 | -64.05649 | 9919 ft | 232 kts | 245° |
| 2026-04-11 21:08 | -53.55112 | -64.07851 | 9917 ft | 232 kts | 245° |
| 2026-04-11 21:08 | -53.56056 | -64.10055 | 9919 ft | 232 kts | 245° |
| 2026-04-11 21:08 | -53.56999 | -64.12258 | 9915 ft | 232 kts | 245° |
| 2026-04-11 21:08 | -53.57943 | -64.14467 | 9917 ft | 232 kts | 245° |
| 2026-04-11 21:09 | -53.58887 | -64.16678 | 9919 ft | 233 kts | 245° |
| 2026-04-11 21:09 | -53.59832 | -64.18891 | 9910 ft | 233 kts | 245° |
| 2026-04-11 21:09 | -53.60777 | -64.21107 | 9918 ft | 233 kts | 245° |
| 2026-04-11 21:09 | -53.61722 | -64.23325 | 9905 ft | 233 kts | 245° |
| 2026-04-11 21:10 | -53.62666 | -64.25544 | 9915 ft | 233 kts | 245° |
| 2026-04-11 21:10 | -53.63613 | -64.27770 | 9909 ft | 233 kts | 246° |
| 2026-04-11 21:10 | -53.64556 | -64.29990 | 9904 ft | 233 kts | 245° |
| 2026-04-11 21:10 | -53.65501 | -64.32216 | 9915 ft | 233 kts | 246° |
| 2026-04-11 21:11 | -53.66445 | -64.34441 | 9914 ft | 233 kts | 246° |
| 2026-04-11 21:11 | -53.67387 | -64.36665 | 9910 ft | 233 kts | 246° |
| 2026-04-11 21:11 | -53.68331 | -64.38895 | 9910 ft | 233 kts | 246° |
| 2026-04-11 21:11 | -53.69274 | -64.41123 | 9914 ft | 233 kts | 246° |
| 2026-04-11 21:12 | -53.70217 | -64.43355 | 9906 ft | 233 kts | 246° |
| 2026-04-11 21:12 | -53.71159 | -64.45585 | 9906 ft | 233 kts | 246° |
| 2026-04-11 21:12 | -53.72101 | -64.47817 | 9905 ft | 233 kts | 246° |
| 2026-04-11 21:12 | -53.73041 | -64.50047 | 9903 ft | 233 kts | 246° |
| 2026-04-11 21:13 | -53.73981 | -64.52280 | 9904 ft | 233 kts | 246° |
| 2026-04-11 21:13 | -53.74921 | -64.54514 | 9900 ft | 233 kts | 246° |
| 2026-04-11 21:13 | -53.75848 | -64.56718 | 9901 ft | 233 kts | 246° |
| 2026-04-11 21:13 | -53.76798 | -64.58981 | 9905 ft | 233 kts | 246° |
| 2026-04-11 21:14 | -53.77736 | -64.61217 | 9900 ft | 233 kts | 246° |
| 2026-04-11 21:14 | -53.78660 | -64.63421 | 9904 ft | 233 kts | 246° |
| 2026-04-11 21:14 | -53.79597 | -64.65657 | 9899 ft | 233 kts | 246° |
| 2026-04-11 21:14 | -53.80534 | -64.67895 | 9894 ft | 233 kts | 246° |
| 2026-04-11 21:15 | -53.81471 | -64.70135 | 9901 ft | 233 kts | 246° |
| 2026-04-11 21:15 | -53.82406 | -64.72375 | 9899 ft | 233 kts | 246° |
| 2026-04-11 21:15 | -53.83340 | -64.74613 | 9896 ft | 233 kts | 246° |
| 2026-04-11 21:15 | -53.84274 | -64.76852 | 9897 ft | 233 kts | 246° |
| 2026-04-11 21:16 | -53.85209 | -64.79095 | 9897 ft | 233 kts | 246° |
| 2026-04-11 21:16 | -53.86141 | -64.81335 | 9899 ft | 233 kts | 246° |
| 2026-04-11 21:16 | -53.87073 | -64.83576 | 9894 ft | 233 kts | 246° |
| 2026-04-11 21:16 | -53.88004 | -64.85816 | 9898 ft | 233 kts | 246° |
| 2026-04-11 21:17 | -53.88935 | -64.88058 | 9898 ft | 233 kts | 246° |
| 2026-04-11 21:17 | -53.89865 | -64.90302 | 9895 ft | 233 kts | 246° |
| 2026-04-11 21:17 | -53.90797 | -64.92549 | 9896 ft | 233 kts | 246° |
| 2026-04-11 21:17 | -53.91726 | -64.94793 | 9893 ft | 233 kts | 246° |
| 2026-04-11 21:18 | -53.92655 | -64.97038 | 9893 ft | 232 kts | 246° |
| 2026-04-11 21:18 | -53.93582 | -64.99282 | 9892 ft | 232 kts | 246° |
| 2026-04-11 21:18 | -53.94510 | -65.01530 | 9893 ft | 232 kts | 246° |
| 2026-04-11 21:18 | -53.95436 | -65.03773 | 9891 ft | 232 kts | 246° |
| 2026-04-11 21:19 | -53.96363 | -65.06023 | 9888 ft | 232 kts | 246° |
| 2026-04-11 21:19 | -53.97289 | -65.08270 | 9888 ft | 232 kts | 246° |
| 2026-04-11 21:19 | -53.98212 | -65.10514 | 9891 ft | 232 kts | 246° |
| 2026-04-11 21:19 | -53.99135 | -65.12758 | 9887 ft | 232 kts | 246° |
| 2026-04-11 21:20 | -54.00059 | -65.15007 | 9879 ft | 232 kts | 246° |
| 2026-04-11 21:20 | -54.00979 | -65.17250 | 9884 ft | 232 kts | 246° |
| 2026-04-11 21:20 | -54.01901 | -65.19499 | 9882 ft | 232 kts | 246° |
| 2026-04-11 21:20 | -54.02822 | -65.21745 | 9881 ft | 232 kts | 246° |
| 2026-04-11 21:21 | -54.03742 | -65.23994 | 9879 ft | 231 kts | 246° |
| 2026-04-11 21:21 | -54.04661 | -65.26243 | 9880 ft | 231 kts | 246° |
| 2026-04-11 21:21 | -54.05579 | -65.28488 | 9881 ft | 231 kts | 246° |
| 2026-04-11 21:21 | -54.06495 | -65.30732 | 9878 ft | 231 kts | 246° |
| 2026-04-11 21:22 | -54.07398 | -65.32947 | 9875 ft | 231 kts | 246° |
| 2026-04-11 21:22 | -54.08312 | -65.35191 | 9875 ft | 231 kts | 246° |
| 2026-04-11 21:22 | -54.09226 | -65.37436 | 9877 ft | 231 kts | 246° |
| 2026-04-11 21:22 | -54.10139 | -65.39681 | 9878 ft | 231 kts | 246° |
| 2026-04-11 21:23 | -54.11051 | -65.41926 | 9876 ft | 231 kts | 246° |
| 2026-04-11 21:23 | -54.11964 | -65.44174 | 9874 ft | 230 kts | 246° |
| 2026-04-11 21:23 | -54.12875 | -65.46419 | 9874 ft | 230 kts | 246° |
| 2026-04-11 21:23 | -54.13784 | -65.48663 | 9866 ft | 230 kts | 246° |
| 2026-04-11 21:24 | -54.14692 | -65.50906 | 9866 ft | 230 kts | 246° |
| 2026-04-11 21:24 | -54.15599 | -65.53148 | 9865 ft | 230 kts | 246° |
| 2026-04-11 21:24 | -54.16506 | -65.55392 | 9864 ft | 230 kts | 246° |
| 2026-04-11 21:24 | -54.17413 | -65.57638 | 9859 ft | 230 kts | 246° |
| 2026-04-11 21:25 | -54.18319 | -65.59884 | 9864 ft | 229 kts | 246° |
| 2026-04-11 21:25 | -54.19223 | -65.62126 | 9859 ft | 229 kts | 246° |
| 2026-04-11 21:25 | -54.20125 | -65.64368 | 9861 ft | 229 kts | 246° |
| 2026-04-11 21:25 | -54.21027 | -65.66608 | 9860 ft | 229 kts | 246° |
| 2026-04-11 21:26 | -54.21927 | -65.68849 | 9858 ft | 229 kts | 246° |
| 2026-04-11 21:26 | -54.22827 | -65.71089 | 9853 ft | 228 kts | 246° |
| 2026-04-11 21:26 | -54.23726 | -65.73329 | 9851 ft | 228 kts | 246° |
| 2026-04-11 21:26 | -54.24623 | -65.75566 | 9857 ft | 228 kts | 246° |
| 2026-04-11 21:27 | -54.25521 | -65.77809 | 9854 ft | 229 kts | 246° |
| 2026-04-11 21:27 | -54.26407 | -65.80023 | 9852 ft | 229 kts | 246° |
| 2026-04-11 21:27 | -54.27304 | -65.82266 | 9850 ft | 229 kts | 245° |
| 2026-04-11 21:27 | -54.28201 | -65.84512 | 9855 ft | 229 kts | 245° |
| 2026-04-11 21:28 | -54.29098 | -65.86759 | 9848 ft | 229 kts | 245° |
| 2026-04-11 21:28 | -54.29994 | -65.89008 | 9851 ft | 229 kts | 245° |
| 2026-04-11 21:28 | -54.30889 | -65.91253 | 9851 ft | 228 kts | 245° |
| 2026-04-11 21:28 | -54.31784 | -65.93500 | 9850 ft | 228 kts | 245° |
| 2026-04-11 21:29 | -54.32689 | -65.95777 | 9849 ft | 228 kts | 245° |
| 2026-04-11 21:29 | -54.33571 | -65.97996 | 9847 ft | 228 kts | 245° |
| 2026-04-11 21:29 | -54.34465 | -66.00248 | 9847 ft | 228 kts | 245° |
| 2026-04-11 21:29 | -54.35375 | -66.02482 | 9843 ft | 231 kts | 242° |
| 2026-04-11 21:30 | -54.36444 | -66.04577 | 9836 ft | 234 kts | 237° |
| 2026-04-11 21:30 | -54.37554 | -66.06627 | 9834 ft | 235 kts | 237° |
| 2026-04-11 21:30 | -54.38668 | -66.08671 | 9837 ft | 235 kts | 237° |
| 2026-04-11 21:30 | -54.39783 | -66.10716 | 9837 ft | 235 kts | 237° |
| 2026-04-11 21:31 | -54.40897 | -66.12761 | 9837 ft | 235 kts | 237° |
| 2026-04-11 21:31 | -54.42011 | -66.14807 | 9830 ft | 235 kts | 237° |
| 2026-04-11 21:31 | -54.43124 | -66.16853 | 9829 ft | 234 kts | 237° |
| 2026-04-11 21:32 | -54.45337 | -66.20952 | 9846 ft | 234 kts | 238° |
| 2026-04-11 21:32 | -54.46409 | -66.23047 | 9840 ft | 233 kts | 239° |
| 2026-04-11 21:32 | -54.47451 | -66.25180 | 9840 ft | 233 kts | 240° |
| 2026-04-11 21:32 | -54.48463 | -66.27342 | 9837 ft | 232 kts | 240° |
| 2026-04-11 21:33 | -54.49653 | -66.29285 | 9819 ft | 246 kts | 221° |
| 2026-04-11 21:33 | -54.51225 | -66.30562 | 9812 ft | 252 kts | 213° |
| 2026-04-11 21:33 | -54.52800 | -66.31841 | 9809 ft | 249 kts | 217° |
| 2026-04-11 21:33 | -54.54341 | -66.33196 | 9806 ft | 248 kts | 217° |
| 2026-04-11 21:34 | -54.55876 | -66.34560 | 9794 ft | 248 kts | 217° |
| 2026-04-11 21:34 | -54.57412 | -66.35929 | 9804 ft | 248 kts | 217° |
| 2026-04-11 21:34 | -54.58941 | -66.37303 | 9798 ft | 248 kts | 217° |
| 2026-04-11 21:34 | -54.60464 | -66.38682 | 9764 ft | 247 kts | 217° |
| 2026-04-11 21:35 | -54.61940 | -66.40159 | 9761 ft | 240 kts | 227° |
| 2026-04-11 21:35 | -54.63038 | -66.42225 | 9770 ft | 231 kts | 240° |
| 2026-04-11 21:35 | -54.63992 | -66.44454 | 9771 ft | 230 kts | 242° |
| 2026-04-11 21:35 | -54.64920 | -66.46722 | 9689 ft | 234 kts | 243° |
| 2026-04-11 21:36 | -54.65832 | -66.49074 | 9518 ft | 237 kts | 244° |
| 2026-04-11 21:36 | -54.66702 | -66.51460 | 9351 ft | 239 kts | 245° |
| 2026-04-11 21:36 | -54.67560 | -66.53964 | 9120 ft | 241 kts | 246° |
| 2026-04-11 21:36 | -54.68377 | -66.56510 | 8798 ft | 243 kts | 248° |
| 2026-04-11 21:37 | -54.69143 | -66.59075 | 8488 ft | 244 kts | 250° |
| 2026-04-11 21:37 | -54.69928 | -66.61675 | 8179 ft | 246 kts | 242° |
| 2026-04-11 21:37 | -54.70951 | -66.64012 | 8150 ft | 240 kts | 239° |
| 2026-04-11 21:37 | -54.71943 | -66.66288 | 8154 ft | 235 kts | 240° |
| 2026-04-11 21:38 | -54.72895 | -66.68556 | 8148 ft | 231 kts | 242° |
| 2026-04-11 21:38 | -54.73853 | -66.70782 | 8142 ft | 231 kts | 239° |
| 2026-04-11 21:38 | -54.74835 | -66.72965 | 8088 ft | 230 kts | 239° |
| 2026-04-11 21:38 | -54.75806 | -66.75161 | 8011 ft | 229 kts | 240° |
| 2026-04-11 21:39 | -54.76764 | -66.77365 | 7916 ft | 229 kts | 240° |
| 2026-04-11 21:39 | -54.77717 | -66.79559 | 7874 ft | 228 kts | 240° |
| 2026-04-11 21:39 | -54.78673 | -66.81752 | 7789 ft | 228 kts | 240° |
| 2026-04-11 21:39 | -54.79627 | -66.83950 | 7883 ft | 228 kts | 240° |
| 2026-04-11 21:40 | -54.80578 | -66.86151 | 7935 ft | 228 kts | 240° |
| 2026-04-11 21:40 | -54.81531 | -66.88350 | 7938 ft | 228 kts | 240° |
| 2026-04-11 21:40 | -54.82486 | -66.90550 | 7945 ft | 228 kts | 240° |
| 2026-04-11 21:40 | -54.83440 | -66.92753 | 7949 ft | 228 kts | 240° |
| 2026-04-11 21:41 | -54.84390 | -66.94950 | 7960 ft | 228 kts | 240° |
| 2026-04-11 21:41 | -54.85344 | -66.97159 | 7886 ft | 230 kts | 240° |
| 2026-04-11 21:41 | -54.86306 | -66.99405 | 7650 ft | 234 kts | 240° |
| 2026-04-11 21:41 | -54.87288 | -67.01688 | 7419 ft | 238 kts | 240° |
| 2026-04-11 21:42 | -54.88284 | -67.03993 | 7190 ft | 239 kts | 240° |
| 2026-04-11 21:42 | -54.89284 | -67.06309 | 6953 ft | 240 kts | 240° |
| 2026-04-11 21:42 | -54.90281 | -67.08637 | 6732 ft | 241 kts | 240° |
| 2026-04-11 21:42 | -54.90945 | -67.10182 | 6581 ft | 241 kts | 240° |
| 2026-04-11 21:43 | -54.92284 | -67.13299 | 6271 ft | 240 kts | 240° |
| 2026-04-11 21:43 | -54.93280 | -67.15618 | 6051 ft | 238 kts | 240° |
| 2026-04-11 21:43 | -54.94386 | -67.17724 | 5800 ft | 246 kts | 224° |
| 2026-04-11 21:43 | -54.95401 | -67.18739 | 5626 ft | 253 kts | 211° |
| 2026-04-11 21:44 | -54.97142 | -67.19444 | 5358 ft | 264 kts | 190° |
| 2026-04-11 21:44 | -54.99556 | -67.18524 | 4999 ft | 277 kts | 158° |
| 2026-04-11 21:44 | -55.00635 | -67.17219 | 4813 ft | 282 kts | 141° |
| 2026-04-11 21:44 | -55.01782 | -67.14440 | 4539 ft | 286 kts | 115° |
| 2026-04-11 21:45 | -55.02209 | -67.11098 | 4279 ft | 283 kts | 90° |
| 2026-04-11 21:45 | -55.02199 | -67.07675 | 4048 ft | 282 kts | 88° |
| 2026-04-11 21:45 | -55.02188 | -67.04307 | 4006 ft | 275 kts | 88° |
| 2026-04-11 21:45 | -55.01934 | -67.01074 | 3986 ft | 265 kts | 65° |
| 2026-04-11 21:46 | -55.00926 | -66.98534 | 3987 ft | 249 kts | 34° |
| 2026-04-11 21:46 | -54.99475 | -66.97091 | 3997 ft | 235 kts | 13° |
| 2026-04-11 21:46 | -54.97934 | -66.96616 | 3995 ft | 223 kts | 353° |
| 2026-04-11 21:46 | -54.96444 | -66.97043 | 3999 ft | 214 kts | 335° |
| 2026-04-11 21:47 | -54.95149 | -66.98261 | 4001 ft | 207 kts | 318° |
| 2026-04-11 21:47 | -54.93599 | -67.02242 | 4005 ft | 202 kts | 287° |
| 2026-04-11 21:47 | -54.93535 | -67.04683 | 4002 ft | 207 kts | 264° |
| 2026-04-11 21:48 | -54.93788 | -67.07150 | 4002 ft | 207 kts | 270° |
| 2026-04-11 21:48 | -54.93686 | -67.09648 | 3878 ft | 209 kts | 284° |
| 2026-04-11 21:48 | -54.93297 | -67.12090 | 3752 ft | 211 kts | 288° |
| 2026-04-11 21:48 | -54.93112 | -67.14622 | 3602 ft | 216 kts | 269° |
| 2026-04-11 21:49 | -54.93366 | -67.17221 | 3485 ft | 218 kts | 266° |
| 2026-04-11 21:49 | -54.93475 | -67.19813 | 3343 ft | 205 kts | 274° |
| 2026-04-11 21:49 | -54.93471 | -67.22099 | 3200 ft | 178 kts | 275° |
| 2026-04-11 21:49 | -54.93461 | -67.24255 | 3057 ft | 178 kts | 275° |
| 2026-04-11 21:50 | -54.93453 | -67.26409 | 2914 ft | 178 kts | 275° |
| 2026-04-11 21:50 | -54.93444 | -67.28552 | 2841 ft | 177 kts | 275° |
| 2026-04-11 21:50 | -54.93444 | -67.30688 | 2802 ft | 175 kts | 275° |
| 2026-04-11 21:50 | -54.93443 | -67.32782 | 2826 ft | 173 kts | 275° |
| 2026-04-11 21:51 | -54.93438 | -67.34884 | 2686 ft | 178 kts | 275° |
| 2026-04-11 21:51 | -54.93419 | -67.37085 | 2431 ft | 182 kts | 277° |
| 2026-04-11 21:51 | -54.93364 | -67.39284 | 2314 ft | 182 kts | 277° |
| 2026-04-11 21:51 | -54.93314 | -67.41501 | 2066 ft | 186 kts | 276° |
| 2026-04-11 21:52 | -54.93271 | -67.43750 | 1914 ft | 185 kts | 277° |
| 2026-04-11 21:52 | -54.93244 | -67.45981 | 1740 ft | 186 kts | 275° |
| 2026-04-11 21:52 | -54.93229 | -67.48151 | 1499 ft | 169 kts | 275° |
| 2026-04-11 21:52 | -54.93225 | -67.49797 | 1309 ft | 116 kts | 274° |
| 2026-04-11 21:53 | -54.93209 | -67.51128 | 1144 ft | 106 kts | 278° |
| 2026-04-11 21:53 | -54.93195 | -67.52379 | 994 ft | 101 kts | 272° |
| 2026-04-11 21:53 | -54.93192 | -67.53579 | 859 ft | 98 kts | 272° |
| 2026-04-11 21:53 | -54.93179 | -67.54776 | 742 ft | 101 kts | 272° |
| 2026-04-11 21:54 | -54.93171 | -67.56014 | 615 ft | 104 kts | 273° |
| 2026-04-11 21:54 | -54.93154 | -67.57259 | 483 ft | 102 kts | 275° |
| 2026-04-11 21:54 | -54.93142 | -67.58495 | 346 ft | 102 kts | 275° |
| 2026-04-11 21:54 | -54.93130 | -67.59730 | 218 ft | 102 kts | 274° |
| 2026-04-11 21:55 | -54.93119 | -67.60968 | 92 ft | 101 kts | 276° |
| 2026-04-11 21:55 | -54.93111 | -67.62096 | 54 ft | 77 kts | 279° |
| 2026-04-11 21:55 | -54.93101 | -67.62627 | 58 ft | 10 kts | 214° |
| 2026-04-11 21:55 | -54.93093 | -67.62488 | 48 ft | 17 kts | 86° |
| 2026-04-11 21:56 | -54.93105 | -67.62267 | 51 ft | 20 kts | 76° |
| 2026-04-11 21:56 | -54.93099 | -67.62012 | 46 ft | 22 kts | 88° |
| 2026-04-11 21:56 | -54.93103 | -67.61731 | 43 ft | 23 kts | 110° |
| 2026-04-11 21:56 | -54.93165 | -67.61642 | 45 ft | 13 kts | 184° |
| 2026-04-11 21:57 | -54.93171 | -67.61643 | 45 ft | 0 kts | 180° |